Grass Valley, Nevada
Current Conditions -  °F | °C
As of 10:56 AM on Friday 24 Oct 2014 (Local Time) from KWMC Reporting Station
Clear Clear  
Wind Chill: 61°   Ceiling: Unl
Heat Index: 61°   Visibility: 10mi
Dew Point: 32°   Wind: 5mph
Humidity: 34%   Direction: 40°NE
Pressure: 30.1"   Gusts: NA
Location:  41.1353°N, 118.186°W
Report Text: KWMC 241756Z AUTO 04004KT 10SM CLR 16/00 A3010 RMK AO2 SLP174 T01610000 10161 21017 58002
Loading
Personal Weather Stations






























Interactive Weather Map
Tropical Storm Tracking
New forecast layout! Learn more

10-Day Weather Forecast

Advertisements
Track Severe Weather on mobile